METAR Data
IDs: Format: Raw Decoded Include TAF

Data at: 0750 UTC 23 Feb 2019

KERV 230735Z AUTO 16007KT 2SM RA OVC003 15/14 A2982 RMK AO2 T01510138
KERV 230715Z AUTO 14008KT 1 3/4SM RA OVC003 15/14 A2982 RMK AO2 T01480135
KERV 230655Z AUTO 14006KT 2 1/2SM -DZ OVC003 15/14 A2982 RMK AO2 T01480135
KERV 230635Z AUTO 13005KT 2 1/2SM DZ OVC003 15/14 A2982 RMK AO2 T01480135
KERV 230615Z AUTO 14005KT 3SM -RA OVC005 15/14 A2983 RMK AO2 T01480135
KERV 230555Z AUTO 13009KT 2 1/2SM -DZ OVC007 15/14 A2982 RMK AO2 T01480135 10176 20148 401900092
KERV 230535Z AUTO 12010G15KT 5SM BR OVC007 15/14 A2983 RMK AO2 T01480135
KERV 230515Z AUTO 11008KT 5SM BR OVC005 15/13 A2983 RMK AO2 T01480134
KERV 230455Z AUTO 11007KT 3SM BR OVC005 15/13 A2984 RMK AO2 T01480132
KERV 230435Z AUTO 11007KT 3SM BR OVC009 16/14 A2984 RMK AO2 T01610141
KERV 230415Z AUTO 14009KT 7SM OVC011 16/14 A2984 RMK AO2 T01620140
KERV 230355Z AUTO 14006KT 7SM OVC013 16/14 A2984 RMK AO2 T01620138

KT82 230735Z AUTO 17007KT 7SM OVC003 14/13 A2981 RMK AO2 T01380131
KT82 230715Z AUTO 17009KT 130V190 5SM BR OVC003 14/13 A2981 RMK AO2 T01350129
KT82 230655Z AUTO 16006KT 3SM BR OVC003 14/13 A2980 RMK AO2 T01390130
KT82 230635Z AUTO 15005KT 2SM BR OVC003 14/13 A2982 RMK AO2 T01410133
KT82 230615Z AUTO 14003KT 4SM BR OVC003 14/13 A2982 RMK AO2 T01400132
KT82 230555Z AUTO 12003KT 5SM BR OVC003 14/13 A2983 RMK AO2 T01400131 10175 20140 401870081
KT82 230535Z AUTO 14004KT 5SM BR OVC003 14/13 A2983 RMK AO2 T01400131
KT82 230515Z AUTO 15003KT 3SM BR OVC003 14/13 A2984 RMK AO2 T01400131
KT82 230455Z AUTO 14004KT 3SM BR OVC005 14/13 A2984 RMK AO2 T01420131
KT82 230435Z AUTO 13006KT 4SM BR OVC007 15/13 A2984 RMK AO2 T01470132
KT82 230415Z AUTO 14004KT 10SM OVC009 15/13 A2985 RMK AO2 T01500130
KT82 230355Z AUTO 12004KT 10SM OVC011 15/13 A2985 RMK AO2 T01530132

KJCT 230651Z AUTO 19011KT 8SM OVC019 18/14 A2979 RMK AO2 SLP061 T01780144
KJCT 230551Z AUTO 17011G17KT 7SM BKN016 OVC021 17/14 A2979 RMK AO2 SLP063 T01720139 10206 20133 402170094 58002
KJCT 230451Z AUTO 15008KT 6SM HZ OVC015 16/13 A2980 RMK AO2 SLP068 T01560128
KJCT 230351Z AUTO 10005KT 7SM BKN014 14/12 A2980 RMK AO2 SLP069 T01390117

K5C1 230735Z AUTO 00000KT 1/2SM OVC002 12/12 A2983 RMK AO1
K5C1 230715Z AUTO 00000KT 1/2SM OVC002 12/12 A2983 RMK AO1
K5C1 230655Z AUTO 00000KT 3/4SM OVC002 12/12 A2983 RMK AO1
K5C1 230635Z AUTO 00000KT 3/4SM OVC002 12/12 A2984 RMK AO1
K5C1 230615Z AUTO 00000KT 3/4SM OVC002 12/12 A2984 RMK AO1
K5C1 230555Z AUTO 00000KT 1SM OVC002 12/12 A2984 RMK AO1
K5C1 230535Z AUTO 00000KT 3/4SM OVC002 12/12 A2984 RMK AO1
K5C1 230515Z AUTO 00000KT 1/2SM OVC002 12/12 A2985 RMK AO1
K5C1 230455Z AUTO 00000KT 3/4SM OVC002 12/12 A2986 RMK AO1
K5C1 230435Z AUTO 00000KT 3/4SM OVC002 12/12 A2986 RMK AO1
K5C1 230415Z AUTO 00000KT 1 1/2SM OVC002 12/12 A2987 RMK AO1
K5C1 230355Z AUTO 00000KT 1 1/2SM OVC004 12/12 A2987 RMK AO1

KHDO 230736Z AUTO 04004KT 1SM BR OVC002 16/16 A2982 RMK AO2 T01610156
KHDO 230651Z AUTO 11007KT 1 1/4SM BR OVC002 16/16 A2981 RMK AO2 SLP085 T01610156
KHDO 230633Z AUTO 12009KT 1SM BR OVC002 16/16 A2981 RMK AO2 T01610156
KHDO 230602Z AUTO 09007KT 3/4SM BR OVC002 16/16 A2981 RMK AO2 T01610156
KHDO 230551Z AUTO 10007KT 1SM BR OVC002 16/16 A2982 RMK AO2 SLP087 T01610156 10200 20161 402110122 58006
KHDO 230543Z AUTO 10005KT 1SM BR OVC002 16/16 A2982 RMK AO2 T01610156
KHDO 230515Z AUTO 11010KT 1 3/4SM BR OVC004 16/16 A2983 RMK AO2 T01610156
KHDO 230510Z AUTO 11010KT 2 1/2SM BR OVC004 16/15 A2982 RMK AO2 T01610150
KHDO 230451Z AUTO 11008KT 6SM BR OVC005 17/15 A2983 RMK AO2 SLP092 T01670150
KHDO 230440Z AUTO 10008KT 6SM BR OVC005 17/15 A2983 RMK AO2 T01670150
KHDO 230351Z AUTO 11014KT 7SM OVC006 17/16 A2983 RMK AO2 SLP092 T01670156

KMWL 230653Z AUTO 12006KT 1/4SM FG VV002 09/08 A2977 RMK AO2 SLP078 T00890083
KMWL 230553Z AUTO 11006KT 1/4SM FG VV002 09/08 A2981 RMK AO2 SLP090 T00890083 10094 20089 401170072 58022
KMWL 230453Z AUTO 12007KT 1/4SM FG VV002 09/08 A2983 RMK AO2 SLP100 T00890083
KMWL 230424Z AUTO 15006KT 1/2SM FG OVC002 09/08 A2985 RMK AO2 T00890083
KMWL 230353Z AUTO 16008KT 1 3/4SM BR OVC002 09/08 A2986 RMK AO2 SLP110 T00890083

KADM 230735Z AUTO 12005KT 1/2SM FG OVC001 09/09 A2981 RMK AO2 T00910091
KADM 230715Z AUTO 12006KT 1SM BR OVC001 09/09 A2982 RMK AO2 LTG DSNT NE T00900090
KADM 230655Z AUTO 11005KT 1/4SM FG OVC001 09/09 A2981 RMK AO2 P0001 T00900090
KADM 230635Z AUTO 00000KT 1/2SM FG OVC001 09/09 A2983 RMK AO2 P0001 T00900090
KADM 230615Z AUTO 11003KT 1/4SM FG OVC003 09/09 A2985 RMK AO2 P0001 T00900090
KADM 230555Z AUTO 00000KT 1/2SM FG OVC003 09/09 A2987 RMK AO2 T00900090 10093 20090 400950060
KADM 230535Z AUTO 26003KT 1/2SM FG OVC003 09/09 A2989 RMK AO2 T00910091
KADM 230515Z AUTO 00000KT 1/2SM FG OVC003 09/09 A2988 RMK AO2 T00920092
KADM 230455Z AUTO 15004KT 3/4SM BR OVC003 09/09 A2988 RMK AO2 T00920092
KADM 230355Z 17003KT 1 1/2SM BR OVC003 09/09 A2989

KJLN 230653Z AUTO 13008G16KT 8SM OVC005 07/07 A2988 RMK AO2 SLP119 T00720067 $
KJLN 230553Z AUTO 12009KT 9SM OVC006 07/06 A2990 RMK AO2 SLP127 60000 T00670061 10072 20056 400720011 58021 $
KJLN 230453Z AUTO 13008KT 10SM OVC006 07/06 A2993 RMK AO2 SLP138 T00670061 $
KJLN 230353Z AUTO 12007KT 10SM OVC007 07/06 A2994 RMK AO2 RAE0255 SLP143 P0000 T00670056

KSZL 230656Z 13007KT 7/8SM R19/4500V5500FT BR VV001 03/03 A2993 RMK AO2A RAE04DZB04E20 SLPNO ALSTG ESTMD P0000 T00300030 $
KSZL 230555Z 12008KT 2SM -RA BR OVC002 03/03 A2993 RMK SLPNO ALSTG ESTMD P0005 60007 T00270027 10027 20024 400471006 $
KSZL 230456Z 12007KT 1/2SM -RA BR OVC001 03/03 A2998 RMK SLPNO ALSTG ESTMD P0002 T00250025 $
KSZL 230434Z 12006KT 1/2SM R19/4500V5500FT BR VV001 03/03 M RMK DZE06RAB06E20DZB20E27 SLPNO $
KSZL 230357Z 10005KT 1 1/2SM -DZ OVC003 03/ A3000 RMK UPB47E50DZB50 CIG 002 RWY01 SLPNO ALSTG ESTMD P0000 RVRNO VISNO RWY01 $

KCOU 230731Z AUTO 12011KT 3/4SM BR VV002 03/02 A2995 RMK AO2 RAB0655E09 P0001 T00330022 $
KCOU 230654Z AUTO 13012G17KT 1 1/4SM BR OVC002 03/02 A2997 RMK AO2 SLP154 T00330022 $
KCOU 230620Z AUTO 11010KT 1 3/4SM BR OVC003 03/02 A2998 RMK AO2 T00330022 $
KCOU 230607Z AUTO 12011KT 2 1/2SM BR OVC004 03/02 A2999 RMK AO2 T00330022 $
KCOU 230554Z AUTO 11010KT 3SM BR OVC003 03/02 A3000 RMK AO2 SLP162 60002 T00330022 10039 20028 400501017 56019 $
KCOU 230551Z AUTO 12009G18KT 3SM BR OVC003 03/02 A3000 RMK AO2 $
KCOU 230512Z AUTO 12011KT 2SM BR OVC002 03/02 A3001 RMK AO2 T00280022 $
KCOU 230454Z AUTO 12010KT 1 1/2SM BR OVC002 03/02 A3002 RMK AO2 SLP172 T00280022 $
KCOU 230403Z AUTO 12013KT 1 3/4SM BR OVC003 03/02 A3005 RMK AO2 T00280022 $
KCOU 230354Z AUTO 12012KT 2SM BR OVC003 03/02 A3006 RMK AO2 SLP183 T00280017 $

KCWI 230716Z AUTO 11014KT 7SM UP BKN023 OVC055 01/M02 A3011 RMK AO2 RAE12UPB01 P0000 FZRANO
KCWI 230656Z AUTO 11013KT 7SM -RA FEW025 OVC055 01/M02 A3011 RMK AO2 RAE0558B52UPB0558E01 SLP227 P0000 T00061017 FZRANO
KCWI 230556Z AUTO 11015KT 7SM -RA FEW050 OVC060 01/M02 A3013 RMK AO2 RAB49 SLP231 P0000 60000 T00061022 10011 20006 400171117 56033 FZRANO
KCWI 230456Z AUTO 11017KT 7SM BKN055 OVC070 01/M02 A3016 RMK AO2 SLP243 T00111022 FZRANO
KCWI 230356Z AUTO 09014KT 6SM HZ OVC075 01/M02 A3020 RMK AO2 SLP253 T00111022 FZRANO

KJLN 230653Z AUTO 13008G16KT 8SM OVC005 07/07 A2988 RMK AO2 SLP119 T00720067 $
KJLN 230553Z AUTO 12009KT 9SM OVC006 07/06 A2990 RMK AO2 SLP127 60000 T00670061 10072 20056 400720011 58021 $
KJLN 230453Z AUTO 13008KT 10SM OVC006 07/06 A2993 RMK AO2 SLP138 T00670061 $
KJLN 230353Z AUTO 12007KT 10SM OVC007 07/06 A2994 RMK AO2 RAE0255 SLP143 P0000 T00670056

KOSH 230653Z AUTO 06008KT 5SM HZ OVC080 M02/M05 A3023 RMK AO2 SLP252 T10221050
KOSH 230553Z AUTO 07006KT 5SM BR OVC095 M03/M05 A3026 RMK AO2 SLP265 T10281050 11028 21061 410061156 58030
KOSH 230453Z AUTO 09005KT 5SM HZ OVC110 M03/M06 A3030 RMK AO2 SLP280 T10281061
KOSH 230353Z 11005KT 6SM HZ OVC100 M04/M08 A3033 RMK AO2 SLP292 T10391083